Burgaw, North Carolina
Current Conditions -  °F | °C
As of 10:53 AM on Wednesday 28 Jan 2015 (Local Time) from KILM Reporting Station
Clear Clear  
Wind Chill: 30°   Ceiling: Unl
Heat Index: 38°   Visibility: 10mi
Dew Point: 18°   Wind: 14mph
Humidity: 44%   Direction: 350°N
Pressure: 30.22"   Gusts: NA
Location:  34.55°N, 77.93°W
Report Text: KILM 281553Z AUTO 35012KT 10SM CLR 03/M08 A3022 RMK AO2 SLP233 T00331078
Loading
Personal Weather Stations






























Interactive Weather Map New forecast layout! Learn more

10-Day Weather Forecast

Advertisements
Track Severe Weather on mobile